Bookmark and Share
Track history (hours):
 

Hitachimaru

Last reported at 2014-Apr-16 03:19 UTC. Time now 2014-Apr-16 13:39 UTC.
Position N 34°60' E 140°12'.

Length 83 m; draft 4.5 m.

Type: Cargo ship. MMSI: 431301756.

NotesDate/timePositionNaut miles runAvg speedWind from/ knotsBaromVisibWave heightAir tempDewpointWater temp
2014-Apr-16 03:19N 34°60' E 140°12'3110.6
2014-Apr-16 00:22N 35°23' E 140°38'1311.3
2014-Apr-15 23:14N 35°33' E 140°47'811.1
2014-Apr-15 22:32N 35°39' E 140°53'1010.1
2014-Apr-15 21:30N 35°50' E 140°51'1111.2
2014-Apr-15 20:33N 35°58' E 140°43'3 3.2
2014-Apr-15 19:33N 35°56' E 140°40'0 0.0
2014-Apr-15 18:31N 35°56' E 140°40'0 0.0
2014-Apr-15 17:28N 35°56' E 140°40'0 0.0
2014-Apr-15 16:31N 35°56' E 140°40'0 0.0
2014-Apr-15 15:19N 35°56' E 140°40'0 0.0
2014-Apr-15 12:31N 35°56' E 140°40'26 1.5
2014-Apr-14 19:33N 35°30' E 140°46'2913.9
2014-Apr-14 17:30N 35°08' E 140°24'1212.3
2014-Apr-14 16:33N 35°01' E 140°13'2311.3
2014-Apr-14 14:31N 34°54' E 139°47'1111.6
2014-Apr-14 13:33N 35°05' E 139°44'2311.7
2014-Apr-14 11:34N 35°28' E 139°48'1212.2
2014-Apr-14 10:34N 35°37' E 139°58'3 3.4
2014-Apr-14 09:32N 35°40' E 139°57'0 0.0
2014-Apr-14 08:32N 35°40' E 139°57'0 0.0
2014-Apr-14 07:32N 35°40' E 139°57'46 5.1
2014-Apr-13 22:33N 34°58' E 139°35'23410.1
2014-Apr-12 23:29N 34°02' E 134°60'1111.9
2014-Apr-12 22:33N 34°13' E 134°59'1110.8
2014-Apr-12 21:33N 34°24' E 135°01'1110.9
2014-Apr-12 20:33N 34°34' E 135°04'9 8.5
2014-Apr-12 19:28N 34°35' E 134°53'5 0.2
2014-Apr-11 11:11N 34°37' E 134°58'812.8
2014-Apr-11 10:33N 34°34' E 135°08'1313.0
2014-Apr-11 09:32N 34°22' E 135°02'9 8.8
2014-Apr-11 08:33N 34°14' E 135°06'1 0.1
2014-Apr-10 23:31N 34°15' E 135°07'2 2.1
2014-Apr-10 22:34N 34°14' E 135°05'1210.7
2014-Apr-10 21:24N 34°02' E 135°02'261 9.7
2014-Apr-09 18:28N 34°60' E 140°11'3410.2
2014-Apr-09 15:09N 35°24' E 140°40'31 7.6
2014-Apr-09 11:05N 35°55' E 140°41'0 0.0
2014-Apr-08 19:03N 35°55' E 140°40'0 0.0
2014-Apr-08 13:33N 35°55' E 140°40'0 0.1
2014-Apr-08 07:19N 35°55' E 140°40'0 0.2
2014-Apr-08 06:19N 35°56' E 140°40'0 0.0
2014-Apr-08 05:31N 35°56' E 140°40'0 0.0
2014-Apr-08 02:07N 35°56' E 140°40'4 6.5
2014-Apr-08 01:32N 35°57' E 140°44'1413.3
2014-Apr-08 00:29N 35°46' E 140°54'1111.6
2014-Apr-07 23:32N 35°35' E 140°51'1212.5
2014-Apr-07 22:33N 35°26' E 140°42'3113.6
2014-Apr-07 20:17N 35°02' E 140°17'1114.7
2014-Apr-07 19:33N 34°57' E 140°06'19 9.6
2014-Apr-07 17:33N 34°60' E 139°43'1212.2
2014-Apr-07 16:33N 35°12' E 139°46'1212.4
2014-Apr-07 15:33N 35°24' E 139°43'1312.5
2014-Apr-07 14:33N 35°33' E 139°54'8 8.3
2014-Apr-07 13:34N 35°40' E 139°57'0 0.0
2014-Apr-07 12:26N 35°40' E 139°57'0 0.0
2014-Apr-07 11:32N 35°40' E 139°57'1 0.9
2014-Apr-07 10:33N 35°40' E 139°58'1111.3
2014-Apr-07 09:34N 35°29' E 139°52'1211.6
2014-Apr-07 08:34N 35°23' E 139°40'1 1.0
2014-Apr-07 07:31N 35°23' E 139°38'0 0.0
2014-Apr-07 06:31N 35°23' E 139°38'0 0.0
2014-Apr-07 05:31N 35°23' E 139°38'0 0.0
2014-Apr-07 04:28N 35°23' E 139°38'0 0.0
2014-Apr-07 03:31N 35°23' E 139°38'0 0.0
2014-Apr-07 02:31N 35°23' E 139°38'0 0.4
2014-Apr-07 01:33N 35°24' E 139°38'1 1.1
2014-Apr-07 00:31N 35°23' E 139°40'0 0.0
2014-Apr-06 23:31N 35°23' E 139°40'0 0.0
2014-Apr-06 22:31N 35°23' E 139°40'0 0.0
2014-Apr-06 21:31N 35°23' E 139°40'0 0.0
2014-Apr-06 20:31N 35°23' E 139°40'0 0.0
2014-Apr-06 19:31N 35°23' E 139°40'0 0.0
2014-Apr-06 18:31N 35°23' E 139°40'0 0.0
2014-Apr-06 17:31N 35°23' E 139°40'0 0.0
2014-Apr-06 16:31N 35°23' E 139°40'0 0.0
2014-Apr-06 15:31N 35°23' E 139°40'0 0.0
2014-Apr-06 14:31N 35°23' E 139°40'0 0.0
2014-Apr-06 13:31N 35°23' E 139°40'0 0.0
2014-Apr-06 12:31N 35°23' E 139°40'0 0.1
2014-Apr-06 11:34N 35°23' E 139°40'0 0.0
2014-Apr-06 10:33N 35°23' E 139°40'0 0.0
2014-Apr-06 09:33N 35°23' E 139°40'1 0.5
2014-Apr-06 08:33N 35°23' E 139°40'1111.2
2014-Apr-06 07:33N 35°13' E 139°47'1010.3
2014-Apr-06 06:33N 35°03' E 139°43'1312.2
2014-Apr-06 05:30N 34°55' E 139°31'  

Dump ship's entire track history

sailing weather and tide predictions

Hitachimaru — JD2063 — position and weather